Terminal Aerodrome Forecast
Issued by NWS Chicago, IL

Home | Current Version | Previous Version | Text Only | Print | Product List | Glossary Off
Versions: 1 2 3 4 5 6 7 8 9 10 11 12 13 14 15 16 17 18 19 20 21 22 23 24 25 26 27 28 29 30

000
FTUS43 KLOT 291822 AAA
TAFRFD
TAF AMD
KRFD 291822Z 2918/3018 13006KT P6SM SCT015 BKN050 BKN150
     FM291900 14007KT P6SM VCTS SCT030 BKN050CB BKN100
     FM292200 15007KT P6SM SCT030 BKN100
     FM300100 12003KT P6SM BKN250
     FM300900 VRB03KT P6SM VCSH SCT050 BKN100
     FM301400 24005KT P6SM VCSH SCT025 BKN080=

USA.gov is the U.S. government's official web portal to all federal, state and local government web resources and services.